Time;durP1;ratioP1;P1;durP2;ratioP2;P2;SDS_P1;SDS_P2;PMS_P1;PMS_P2;Temp;Humidity;BMP_temperature;BMP_pressure;BME280_temperature;BME280_humidity;BME280_pressure;Samples;Min_cycle;Max_cycle;Signal;HPM_P1;HPM_P2
2022/08/01 00:01:52;;;;;;;1.90;1.80;;;24.50;48.00;;;;;;5061016;28;20314;-69
2022/08/01 00:04:18;;;;;;;2.27;2.17;;;24.50;47.90;;;;;;5059091;28;20185;-63
2022/08/01 00:06:44;;;;;;;1.80;1.70;;;24.50;48.00;;;;;;5060485;28;20457;-84
2022/08/01 00:09:09;;;;;;;2.03;1.83;;;24.50;47.90;;;;;;5067090;28;20227;-60
2022/08/01 00:11:35;;;;;;;1.77;1.67;;;24.50;48.00;;;;;;5070412;28;20188;-74
2022/08/01 00:14:02;;;;;;;1.97;1.87;;;24.50;48.70;;;;;;5059141;28;20251;-61
2022/08/01 00:16:27;;;;;;;2.10;2.00;;;24.50;48.00;;;;;;5063054;28;20468;-58
2022/08/01 00:18:53;;;;;;;2.20;2.10;;;24.50;48.00;;;;;;5064626;28;20513;-71
2022/08/01 00:21:19;;;;;;;2.20;2.10;;;24.50;48.00;;;;;;5059194;28;20256;-79
2022/08/01 00:23:45;;;;;;;2.00;1.90;;;24.50;48.00;;;;;;5062894;28;20545;-59
2022/08/01 00:26:12;;;;;;;2.00;1.77;;;24.50;48.00;;;;;;5069989;28;20181;-66
2022/08/01 00:28:37;;;;;;;1.73;1.63;;;24.50;48.00;;;;;;5060840;28;20421;-62
2022/08/01 00:31:03;;;;;;;1.67;1.57;;;24.50;48.00;;;;;;5067820;28;20451;-81
2022/08/01 00:33:29;;;;;;;1.90;1.80;;;24.50;48.00;;;;;;5059536;28;20683;-69
2022/08/01 00:35:54;;;;;;;2.00;1.90;;;24.50;48.10;;;;;;5068097;28;20216;-70
2022/08/01 00:38:20;;;;;;;1.70;1.60;;;24.50;48.10;;;;;;5066785;28;20176;-67
2022/08/01 00:40:46;;;;;;;2.10;2.00;;;24.50;48.10;;;;;;5068317;28;20234;-83
2022/08/01 00:43:11;;;;;;;1.70;1.60;;;24.50;48.10;;;;;;5061446;28;20223;-80
2022/08/01 00:45:37;;;;;;;1.90;1.80;;;24.50;48.20;;;;;;5060972;28;20555;-82
2022/08/01 00:48:03;;;;;;;1.77;1.67;;;24.50;48.10;;;;;;5061731;28;22205;-59
2022/08/01 00:50:29;;;;;;;1.90;1.80;;;24.50;48.00;;;;;;5063095;28;20599;-69
2022/08/01 00:52:55;;;;;;;1.80;1.70;;;24.50;48.10;;;;;;5059557;28;20268;-77
2022/08/01 00:55:21;;;;;;;1.80;1.70;;;24.50;48.10;;;;;;5058857;28;20940;-77
2022/08/01 00:57:48;;;;;;;2.00;1.90;;;24.50;48.10;;;;;;5069905;28;20432;-59
2022/08/01 01:00:14;;;;;;;1.70;1.60;;;24.50;48.10;;;;;;5057663;28;20197;-73
2022/08/01 01:02:40;;;;;;;1.60;1.50;;;24.50;48.10;;;;;;5059004;28;20433;-71
2022/08/01 01:05:06;;;;;;;1.70;1.60;;;24.50;48.10;;;;;;5064772;28;20184;-64
2022/08/01 01:07:50;;;;;;;2.13;2.03;;;24.50;48.10;;;;;;5061854;28;20217;-68
2022/08/01 01:10:22;;;;;;;1.83;1.73;;;24.50;48.00;;;;;;5061278;28;21546;-80
2022/08/01 01:13:04;;;;;;;1.70;1.60;;;24.50;48.10;;;;;;5068005;28;20430;-69
2022/08/01 01:16:01;;;;;;;1.73;1.63;;;24.50;48.10;;;;;;5057519;28;20551;-68
2022/08/01 01:18:32;;;;;;;1.87;1.77;;;24.50;48.10;;;;;;5066568;28;20986;-59
2022/08/01 01:21:16;;;;;;;1.70;1.60;;;24.50;48.10;;;;;;5059386;28;20486;-60
2022/08/01 01:24:02;;;;;;;1.60;1.50;;;24.50;48.20;;;;;;5060758;28;20444;-81
2022/08/01 01:26:54;;;;;;;1.77;1.67;;;24.50;48.20;;;;;;5040571;28;20576;-58
2022/08/01 01:29:43;;;;;;;1.73;1.63;;;24.50;48.10;;;;;;5062493;28;20426;-61
2022/08/01 01:32:33;;;;;;;1.90;1.80;;;24.50;48.20;;;;;;5066640;28;20441;-81
2022/08/01 01:35:01;;;;;;;1.60;1.50;;;24.50;48.20;;;;;;5054840;28;20469;-66
2022/08/01 01:37:28;;;;;;;1.67;1.57;;;24.50;48.20;;;;;;5060896;28;21969;-64
2022/08/01 01:39:55;;;;;;;1.83;1.73;;;24.50;48.20;;;;;;5060952;28;20429;-71
2022/08/01 01:42:22;;;;;;;1.70;1.60;;;24.50;48.20;;;;;;5064863;28;20832;-68
2022/08/01 01:44:50;;;;;;;1.67;1.57;;;24.50;48.20;;;;;;5062785;28;20433;-71
2022/08/01 01:47:17;;;;;;;2.10;2.00;;;24.50;48.10;;;;;;5059650;28;20425;-70
2022/08/01 01:49:45;;;;;;;1.67;1.57;;;24.50;48.20;;;;;;5061069;28;20429;-59
2022/08/01 01:52:15;;;;;;;1.90;1.80;;;24.50;48.10;;;;;;5059720;28;20454;-81
2022/08/01 01:54:50;;;;;;;2.00;1.90;;;24.50;48.20;;;;;;5059617;28;20461;-58
2022/08/01 01:57:17;;;;;;;1.70;1.60;;;24.50;48.30;;;;;;5061204;28;20481;-70
2022/08/01 01:59:45;;;;;;;1.60;1.50;;;24.50;48.20;;;;;;5064328;28;20431;-73
2022/08/01 02:02:12;;;;;;;1.80;1.70;;;24.50;48.20;;;;;;5056895;28;20995;-66
2022/08/01 02:04:42;;;;;;;1.43;1.33;;;24.50;48.20;;;;;;5059719;28;20430;-80
2022/08/01 02:07:10;;;;;;;1.70;1.60;;;24.50;48.20;;;;;;5059046;28;20515;-80
2022/08/01 02:09:42;;;;;;;1.83;1.73;;;24.50;49.00;;;;;;5064002;28;20421;-60
2022/08/01 02:12:11;;;;;;;2.00;1.90;;;24.50;48.20;;;;;;5068724;28;20437;-58
2022/08/01 02:14:39;;;;;;;2.00;1.90;;;24.50;48.30;;;;;;5073566;28;20943;-82
2022/08/01 02:17:06;;;;;;;1.80;1.70;;;24.50;48.30;;;;;;5066472;28;20437;-61
2022/08/01 02:19:35;;;;;;;1.73;1.63;;;24.50;48.30;;;;;;5060072;28;20473;-60
2022/08/01 02:22:05;;;;;;;1.70;1.60;;;24.50;48.40;;;;;;5065067;28;20477;-66
2022/08/01 02:24:51;;;;;;;1.50;1.40;;;24.50;48.30;;;;;;5060598;28;20438;-79
2022/08/01 02:27:28;;;;;;;1.87;1.77;;;24.50;48.30;;;;;;5062886;28;20537;-68
2022/08/01 02:30:00;;;;;;;1.70;1.60;;;24.50;48.30;;;;;;5069877;28;21064;-71
2022/08/01 02:32:38;;;;;;;2.00;1.90;;;24.50;48.40;;;;;;5061561;28;20482;-78
2022/08/01 02:35:07;;;;;;;1.83;1.73;;;24.50;48.40;;;;;;5065343;28;20484;-71
2022/08/01 02:37:36;;;;;;;1.50;1.40;;;24.50;48.50;;;;;;5067715;28;20430;-70
2022/08/01 02:40:02;;;;;;;1.60;1.50;;;24.50;48.60;;;;;;5062924;28;20434;-61
2022/08/01 02:42:29;;;;;;;1.80;1.70;;;24.50;48.60;;;;;;5060386;28;20437;-62
2022/08/01 02:44:57;;;;;;;1.80;1.70;;;24.50;48.60;;;;;;5065477;28;20559;-72
2022/08/01 02:47:25;;;;;;;1.60;1.50;;;24.50;48.50;;;;;;5068689;28;20421;-65
2022/08/01 02:49:54;;;;;;;2.07;1.97;;;24.50;48.60;;;;;;5065279;28;20563;-62
2022/08/01 02:52:22;;;;;;;1.70;1.60;;;24.50;48.60;;;;;;5061800;28;20430;-63
2022/08/01 02:54:53;;;;;;;1.80;1.70;;;24.50;49.30;;;;;;5064047;28;20504;-58
2022/08/01 02:57:21;;;;;;;1.60;1.50;;;24.50;48.60;;;;;;5064123;28;20478;-61
2022/08/01 02:59:49;;;;;;;1.60;1.50;;;24.50;48.60;;;;;;5071678;28;20429;-59
2022/08/01 03:02:16;;;;;;;1.70;1.60;;;24.50;48.50;;;;;;5061713;28;20544;-59
2022/08/01 03:04:42;;;;;;;1.90;1.80;;;24.50;48.60;;;;;;5062968;28;20442;-67
2022/08/01 03:07:10;;;;;;;1.83;1.70;;;24.50;48.60;;;;;;5061969;28;20475;-83
2022/08/01 03:09:40;;;;;;;1.40;1.30;;;24.50;48.60;;;;;;5067438;28;20434;-61
2022/08/01 03:12:11;;;;;;;1.60;1.50;;;24.50;48.60;;;;;;5063503;28;20458;-69
2022/08/01 03:14:41;;;;;;;1.50;1.40;;;24.50;48.60;;;;;;5070559;28;20456;-59
2022/08/01 03:17:09;;;;;;;1.80;1.70;;;24.50;48.60;;;;;;5064213;28;20441;-71
2022/08/01 03:19:37;;;;;;;1.80;1.70;;;24.50;48.60;;;;;;5059066;28;20433;-71
2022/08/01 03:22:07;;;;;;;1.57;1.47;;;24.50;48.60;;;;;;5061188;28;20578;-60
2022/08/01 03:24:34;;;;;;;1.67;1.57;;;24.50;48.60;;;;;;5063699;28;20422;-60
2022/08/01 03:27:01;;;;;;;1.50;1.40;;;24.50;48.60;;;;;;5063060;28;20418;-80
2022/08/01 03:29:29;;;;;;;1.67;1.57;;;24.50;48.60;;;;;;5068153;28;20516;-58
2022/08/01 03:31:57;;;;;;;1.90;1.80;;;24.50;48.60;;;;;;5063028;28;20963;-79
2022/08/01 03:34:23;;;;;;;1.90;1.80;;;24.50;48.60;;;;;;5064562;28;22602;-69
2022/08/01 03:37:16;;;;;;;1.57;1.47;;;24.50;48.60;;;;;;5062741;28;20438;-65
2022/08/01 03:39:48;;;;;;;1.93;1.83;;;24.50;48.60;;;;;;5055664;28;20201;-64
2022/08/01 03:42:18;;;;;;;1.70;1.60;;;24.50;48.60;;;;;;5055713;28;20993;-68
2022/08/01 03:44:53;;;;;;;1.80;1.70;;;24.50;48.60;;;;;;5066983;28;20426;-60
2022/08/01 03:47:21;;;;;;;1.70;1.60;;;24.50;48.60;;;;;;5061378;28;20428;-60
2022/08/01 03:49:48;;;;;;;1.70;1.60;;;24.50;48.60;;;;;;5061329;28;20429;-79
2022/08/01 03:52:14;;;;;;;1.90;1.80;;;24.50;48.60;;;;;;5059853;28;20483;-85
2022/08/01 03:54:45;;;;;;;1.80;1.70;;;24.50;48.60;;;;;;5062781;28;20457;-73
2022/08/01 03:57:11;;;;;;;1.70;1.60;;;24.50;48.60;;;;;;5064483;28;20939;-68
2022/08/01 03:59:38;;;;;;;1.70;1.60;;;24.50;48.60;;;;;;5062147;28;20529;-59
2022/08/01 04:02:05;;;;;;;2.00;1.90;;;24.50;48.60;;;;;;5068916;28;20187;-59
2022/08/01 04:04:31;;;;;;;1.90;1.80;;;24.50;48.60;;;;;;5063604;28;20449;-79
2022/08/01 04:06:57;;;;;;;1.60;1.50;;;24.50;48.60;;;;;;5066707;28;20437;-81
2022/08/01 04:09:24;;;;;;;1.90;1.80;;;24.50;48.60;;;;;;5062775;28;22371;-60
2022/08/01 04:11:50;;;;;;;1.67;1.57;;;24.50;48.60;;;;;;5064482;28;20465;-65
2022/08/01 04:14:17;;;;;;;1.60;1.50;;;24.50;48.60;;;;;;5060033;28;20552;-71
2022/08/01 04:16:43;;;;;;;1.83;1.73;;;24.50;48.60;;;;;;5071206;28;20258;-64
2022/08/01 04:19:08;;;;;;;1.57;1.47;;;24.50;48.60;;;;;;5061158;28;20438;-81
2022/08/01 04:21:35;;;;;;;1.70;1.60;;;24.50;48.60;;;;;;5058118;28;20232;-66
2022/08/01 04:24:10;;;;;;;1.87;1.77;;;24.50;48.60;;;;;;5064197;28;22266;-59
2022/08/01 04:26:39;;;;;;;1.83;1.73;;;24.50;48.60;;;;;;5061035;28;20448;-63
2022/08/01 04:29:06;;;;;;;1.80;1.70;;;24.50;48.60;;;;;;5059077;28;20452;-72
2022/08/01 04:31:34;;;;;;;2.00;1.90;;;24.50;48.60;;;;;;5065624;28;20433;-77
2022/08/01 04:34:01;;;;;;;2.20;2.10;;;24.50;48.60;;;;;;5059633;28;21618;-80
2022/08/01 04:36:29;;;;;;;1.90;1.80;;;24.50;48.60;;;;;;5064624;28;20437;-69
2022/08/01 04:38:59;;;;;;;1.77;1.67;;;24.50;48.60;;;;;;5061475;28;20430;-68
2022/08/01 04:41:25;;;;;;;2.20;1.83;;;24.50;48.60;;;;;;5058963;28;20488;-66
2022/08/01 04:43:52;;;;;;;2.03;1.93;;;24.50;48.60;;;;;;5057838;28;20476;-73
2022/08/01 04:46:18;;;;;;;1.70;1.60;;;24.50;48.60;;;;;;5059963;28;20429;-63
2022/08/01 04:48:45;;;;;;;1.87;1.77;;;24.50;48.60;;;;;;5070730;28;20548;-64
2022/08/01 04:51:15;;;;;;;1.87;1.77;;;24.50;48.60;;;;;;5060623;28;20511;-83
2022/08/01 04:53:41;;;;;;;1.80;1.70;;;24.50;48.60;;;;;;5059484;28;20429;-72
2022/08/01 04:56:07;;;;;;;2.30;2.10;;;24.50;48.60;;;;;;5062199;28;20453;-63
2022/08/01 04:58:32;;;;;;;1.80;1.70;;;24.50;48.60;;;;;;5063268;28;20421;-59
2022/08/01 05:00:58;;;;;;;1.63;1.53;;;24.50;48.60;;;;;;5061096;28;20184;-79
2022/08/01 05:03:23;;;;;;;2.00;1.90;;;24.50;48.60;;;;;;5069955;28;20185;-71
2022/08/01 05:05:49;;;;;;;2.20;2.10;;;24.50;48.60;;;;;;5060826;28;20200;-80
2022/08/01 05:08:16;;;;;;;2.07;1.97;;;24.50;48.60;;;;;;5061597;28;20307;-80
2022/08/01 05:10:41;;;;;;;2.00;1.90;;;24.50;48.70;;;;;;5064676;28;20198;-68
2022/08/01 05:13:08;;;;;;;2.00;1.90;;;24.50;48.60;;;;;;5062771;28;20505;-83
2022/08/01 05:15:37;;;;;;;2.10;2.00;;;24.50;48.60;;;;;;5061247;28;20329;-66
2022/08/01 05:18:03;;;;;;;2.20;2.10;;;24.50;48.60;;;;;;5065897;28;20593;-71
2022/08/01 05:20:28;;;;;;;2.17;2.07;;;24.50;48.60;;;;;;5064754;28;20455;-59
2022/08/01 05:22:55;;;;;;;1.97;1.87;;;24.50;48.60;;;;;;5058861;28;23718;-60
2022/08/01 05:25:20;;;;;;;2.27;2.17;;;24.50;48.60;;;;;;5057081;28;20189;-70
2022/08/01 05:27:46;;;;;;;2.40;2.30;;;24.50;48.60;;;;;;5062399;28;20498;-78
2022/08/01 05:30:12;;;;;;;2.20;2.10;;;24.50;48.60;;;;;;5057807;28;20180;-62
2022/08/01 05:32:38;;;;;;;1.83;1.73;;;24.50;48.60;;;;;;5070108;28;20710;-78
2022/08/01 05:35:05;;;;;;;2.13;2.03;;;24.50;48.60;;;;;;5069355;28;20205;-67
2022/08/01 05:37:31;;;;;;;2.13;2.03;;;24.50;48.60;;;;;;5066015;28;20446;-61
2022/08/01 05:39:56;;;;;;;1.97;1.87;;;24.50;48.60;;;;;;5064150;28;20432;-76
2022/08/01 05:42:22;;;;;;;2.10;2.00;;;24.50;48.60;;;;;;5058738;28;20197;-64
2022/08/01 05:44:48;;;;;;;1.90;1.80;;;24.50;48.60;;;;;;5061687;28;20192;-61
2022/08/01 05:47:14;;;;;;;2.37;2.27;;;24.50;48.60;;;;;;5060753;28;20254;-61
2022/08/01 05:49:39;;;;;;;2.27;2.17;;;24.50;49.40;;;;;;5071522;28;20438;-78
2022/08/01 05:52:05;;;;;;;2.33;2.23;;;24.50;48.60;;;;;;5069337;28;20255;-61
2022/08/01 05:54:31;;;;;;;2.43;2.33;;;24.50;48.60;;;;;;5064447;28;20212;-81
2022/08/01 05:56:59;;;;;;;2.13;2.03;;;24.50;48.60;;;;;;5066418;28;20205;-63
2022/08/01 05:59:25;;;;;;;2.33;2.23;;;24.50;48.60;;;;;;5067621;28;20892;-64
2022/08/01 06:01:53;;;;;;;2.60;2.50;;;24.50;48.60;;;;;;5070965;28;20433;-68
2022/08/01 06:04:19;;;;;;;2.53;2.43;;;24.50;48.60;;;;;;5070595;28;20512;-66
2022/08/01 06:06:45;;;;;;;2.57;2.47;;;24.50;48.70;;;;;;5073695;28;20433;-68
2022/08/01 06:09:10;;;;;;;2.50;2.40;;;24.50;48.60;;;;;;5070426;28;20186;-62
2022/08/01 06:11:36;;;;;;;2.20;2.10;;;24.50;48.60;;;;;;5067807;28;20444;-63
2022/08/01 06:14:02;;;;;;;2.20;2.10;;;24.50;48.70;;;;;;5067749;28;20263;-66
2022/08/01 06:16:27;;;;;;;2.50;2.40;;;24.50;48.60;;;;;;5067575;28;20192;-75
2022/08/01 06:18:53;;;;;;;2.10;2.00;;;24.50;48.60;;;;;;5064916;28;20188;-59
2022/08/01 06:21:19;;;;;;;2.30;2.20;;;24.50;48.70;;;;;;5076211;28;20239;-79
2022/08/01 06:23:44;;;;;;;2.40;2.30;;;24.50;48.60;;;;;;5066043;28;21152;-65
2022/08/01 06:26:10;;;;;;;2.70;2.60;;;24.50;48.60;;;;;;5071197;28;20189;-67
2022/08/01 06:28:37;;;;;;;2.20;2.10;;;24.50;48.60;;;;;;5064992;28;20178;-79
2022/08/01 06:31:02;;;;;;;2.37;2.27;;;24.50;48.60;;;;;;5065504;28;20211;-62
2022/08/01 06:33:28;;;;;;;2.57;2.47;;;24.50;48.60;;;;;;5071650;28;20528;-65
2022/08/01 06:35:54;;;;;;;2.20;2.10;;;24.50;48.60;;;;;;5073496;28;20235;-64
2022/08/01 06:38:19;;;;;;;2.30;2.20;;;24.50;48.60;;;;;;5065133;28;20326;-62
2022/08/01 06:40:45;;;;;;;2.30;2.20;;;24.50;48.60;;;;;;5068844;28;20538;-77
2022/08/01 06:43:13;;;;;;;2.40;2.30;;;24.50;48.60;;;;;;5066277;28;20754;-79
2022/08/01 06:45:40;;;;;;;2.30;2.20;;;24.50;48.60;;;;;;5062265;28;20791;-70
2022/08/01 06:48:06;;;;;;;2.43;2.33;;;24.50;48.60;;;;;;5067649;28;20426;-61
2022/08/01 06:50:35;;;;;;;2.43;2.27;;;24.50;48.60;;;;;;5063712;28;21002;-60
2022/08/01 06:53:01;;;;;;;2.50;2.40;;;24.50;48.60;;;;;;5077029;28;20425;-59
2022/08/01 06:55:26;;;;;;;2.33;2.13;;;24.50;48.60;;;;;;5064514;28;20953;-73
2022/08/01 06:57:53;;;;;;;3.00;2.80;;;24.50;48.60;;;;;;5064314;28;20222;-71
2022/08/01 07:00:22;;;;;;;2.20;2.10;;;24.50;48.60;;;;;;5068253;28;21723;-67
2022/08/01 07:02:52;;;;;;;2.20;2.10;;;24.50;48.60;;;;;;5066863;28;20517;-82
2022/08/01 07:05:18;;;;;;;2.20;2.10;;;24.50;48.60;;;;;;5063026;28;20940;-69
2022/08/01 07:07:44;;;;;;;2.47;2.37;;;24.50;48.60;;;;;;5067054;28;20430;-59
2022/08/01 07:10:10;;;;;;;2.30;2.20;;;24.50;48.60;;;;;;5066928;28;21710;-82
2022/08/01 07:12:37;;;;;;;3.17;2.97;;;24.50;48.60;;;;;;5062340;28;20189;-77
2022/08/01 07:15:07;;;;;;;2.73;2.53;;;24.50;48.60;;;;;;5065315;28;20809;-73
2022/08/01 07:17:40;;;;;;;2.80;2.70;;;24.50;48.60;;;;;;5062041;28;20446;-65
2022/08/01 07:20:10;;;;;;;2.90;2.80;;;24.50;48.60;;;;;;5067842;28;20514;-69
2022/08/01 07:22:37;;;;;;;2.23;2.13;;;24.50;48.60;;;;;;5070265;28;20473;-59
2022/08/01 07:25:04;;;;;;;2.80;2.60;;;24.50;48.60;;;;;;5069084;28;20434;-58
2022/08/01 07:27:30;;;;;;;2.90;2.70;;;24.50;48.60;;;;;;5068243;28;20491;-65
2022/08/01 07:29:55;;;;;;;2.60;2.47;;;24.50;48.60;;;;;;5061516;28;20441;-64
2022/08/01 07:32:21;;;;;;;2.77;2.67;;;24.50;48.60;;;;;;5064047;28;20185;-65
2022/08/01 07:34:46;;;;;;;2.63;2.53;;;24.50;48.70;;;;;;5061550;28;20247;-61
2022/08/01 07:37:12;;;;;;;2.53;2.43;;;24.50;48.60;;;;;;5073186;28;20200;-68
2022/08/01 07:39:37;;;;;;;2.53;2.43;;;24.50;48.60;;;;;;5066302;28;20178;-79
2022/08/01 07:42:04;;;;;;;2.57;2.47;;;24.50;48.60;;;;;;5063534;28;20181;-66
2022/08/01 07:44:30;;;;;;;2.70;2.50;;;24.50;48.60;;;;;;5061957;28;20193;-79
2022/08/01 07:46:55;;;;;;;2.53;2.43;;;24.50;48.60;;;;;;5065937;28;20425;-60
2022/08/01 07:49:21;;;;;;;2.50;2.40;;;24.50;48.60;;;;;;5061298;28;20483;-66
2022/08/01 07:51:47;;;;;;;2.40;2.30;;;24.50;48.60;;;;;;5064490;28;20273;-77
2022/08/01 07:54:13;;;;;;;2.57;2.33;;;24.50;48.60;;;;;;5068782;28;20434;-73
2022/08/01 07:56:38;;;;;;;3.00;2.80;;;24.50;48.60;;;;;;5063388;28;20201;-79
2022/08/01 07:59:04;;;;;;;2.57;2.47;;;24.50;48.60;;;;;;5064979;28;20198;-59
2022/08/01 08:01:32;;;;;;;3.00;2.90;;;24.50;48.60;;;;;;5062010;28;20328;-68
2022/08/01 08:03:58;;;;;;;2.33;2.23;;;24.50;48.60;;;;;;5065791;28;20234;-62
2022/08/01 08:06:23;;;;;;;2.53;2.43;;;24.50;48.60;;;;;;5070770;28;21279;-60
2022/08/01 08:08:49;;;;;;;2.80;2.70;;;24.50;48.60;;;;;;5067833;28;20202;-60
2022/08/01 08:11:15;;;;;;;2.63;2.53;;;24.50;48.60;;;;;;5065905;28;21143;-70
2022/08/01 08:13:42;;;;;;;2.73;2.63;;;24.50;48.60;;;;;;5062533;28;20258;-62
2022/08/01 08:16:08;;;;;;;2.40;2.30;;;24.50;48.60;;;;;;5069524;28;20464;-59
2022/08/01 08:18:35;;;;;;;2.93;2.73;;;24.50;48.60;;;;;;5071397;28;20438;-59
2022/08/01 08:21:01;;;;;;;2.73;2.63;;;24.50;48.60;;;;;;5068059;28;20233;-80
2022/08/01 08:26:11;;;;;;;2.57;2.47;;;24.50;48.70;;;;;;5067890;28;20330;-75
2022/08/01 08:28:40;;;;;;;2.70;2.60;;;24.50;48.60;;;;;;5065936;28;20438;-61
2022/08/01 08:31:08;;;;;;;2.73;2.63;;;24.50;48.60;;;;;;5064521;28;21150;-74
2022/08/01 08:33:33;;;;;;;3.10;3.00;;;24.50;48.60;;;;;;5060856;28;20433;-60
2022/08/01 08:35:59;;;;;;;2.50;2.40;;;24.50;48.60;;;;;;5069578;28;20859;-62
2022/08/01 08:38:26;;;;;;;2.80;2.70;;;24.50;48.60;;;;;;5071063;28;20678;-77
2022/08/01 08:40:53;;;;;;;3.23;3.10;;;24.50;48.60;;;;;;5066414;28;20227;-77
2022/08/01 08:43:20;;;;;;;2.63;2.53;;;24.50;48.60;;;;;;5068995;28;20529;-62
2022/08/01 08:45:46;;;;;;;2.90;2.80;;;24.50;48.70;;;;;;5066955;28;20521;-78
2022/08/01 08:48:13;;;;;;;2.33;2.23;;;24.50;48.60;;;;;;5065130;28;20432;-58
2022/08/01 08:50:43;;;;;;;2.70;2.60;;;24.50;48.60;;;;;;5064603;28;20425;-59
2022/08/01 08:53:10;;;;;;;2.90;2.70;;;24.50;48.60;;;;;;5069517;28;20437;-59
2022/08/01 08:55:37;;;;;;;2.50;2.30;;;24.50;48.60;;;;;;5068414;28;20461;-64
2022/08/01 08:58:05;;;;;;;2.67;2.57;;;24.50;48.60;;;;;;5068450;28;20450;-79
2022/08/01 09:00:34;;;;;;;3.20;3.00;;;24.50;48.60;;;;;;5070908;28;20513;-60
2022/08/01 09:03:00;;;;;;;2.73;2.53;;;24.50;48.60;;;;;;5071601;28;20433;-65
2022/08/01 09:05:25;;;;;;;2.67;2.57;;;24.50;48.60;;;;;;5066046;28;20816;-67
2022/08/01 09:07:52;;;;;;;3.27;3.07;;;24.50;49.40;;;;;;5069926;28;20188;-75
2022/08/01 09:10:18;;;;;;;2.57;2.37;;;24.50;48.60;;;;;;5071205;28;20622;-68
2022/08/01 09:13:10;;;;;;;2.60;2.50;;;24.50;48.60;;;;;;5063454;28;21114;-66
2022/08/01 09:15:46;;;;;;;3.07;2.90;;;24.50;48.60;;;;;;5063443;28;20465;-68
2022/08/01 09:18:34;;;;;;;2.77;2.67;;;24.50;48.60;;;;;;5064485;28;20446;-59
2022/08/01 09:21:06;;;;;;;2.63;2.50;;;24.50;48.70;;;;;;5065240;28;20481;-62
2022/08/01 09:23:42;;;;;;;2.97;2.67;;;24.50;48.60;;;;;;5075884;28;20436;-69
2022/08/01 09:26:12;;;;;;;2.77;2.57;;;24.50;48.60;;;;;;5073883;28;20475;-66
2022/08/01 09:28:38;;;;;;;2.77;2.67;;;24.50;48.60;;;;;;5070517;28;20475;-63
2022/08/01 09:31:13;;;;;;;2.23;2.13;;;24.50;48.60;;;;;;5068787;28;20465;-68
2022/08/01 09:33:50;;;;;;;2.97;2.87;;;24.50;48.60;;;;;;5063555;28;20958;-81
2022/08/01 09:36:16;;;;;;;2.70;2.60;;;24.50;48.60;;;;;;5070552;28;20908;-69
2022/08/01 09:38:42;;;;;;;2.30;2.20;;;24.50;48.60;;;;;;5068126;28;20445;-70
2022/08/01 09:41:08;;;;;;;2.70;2.60;;;24.50;48.60;;;;;;5073792;28;20432;-63
2022/08/01 09:43:34;;;;;;;2.87;2.57;;;24.50;48.60;;;;;;5069237;28;20585;-78
2022/08/01 09:46:08;;;;;;;2.80;2.60;;;24.50;48.60;;;;;;5068274;28;20214;-64
2022/08/01 09:48:34;;;;;;;3.07;2.90;;;24.50;48.60;;;;;;5067417;28;20531;-72
2022/08/01 09:51:00;;;;;;;2.43;2.33;;;24.50;48.60;;;;;;5064969;28;20431;-77
2022/08/01 09:53:26;;;;;;;2.53;2.43;;;24.50;48.60;;;;;;5064625;28;20189;-70
2022/08/01 09:55:53;;;;;;;3.00;2.80;;;24.50;48.60;;;;;;5068921;28;20783;-65
2022/08/01 09:58:20;;;;;;;2.53;2.43;;;24.50;48.60;;;;;;5065581;28;20429;-64
2022/08/01 10:00:59;;;;;;;3.00;2.80;;;24.50;48.60;;;;;;5067990;28;20451;-74
2022/08/01 10:03:26;;;;;;;2.60;2.50;;;24.50;48.60;;;;;;5065240;28;20430;-72
2022/08/01 10:05:56;;;;;;;2.70;2.60;;;24.50;48.60;;;;;;5065439;28;20452;-76
2022/08/01 10:08:24;;;;;;;2.73;2.63;;;24.50;48.60;;;;;;5063376;28;20425;-72
2022/08/01 10:11:10;;;;;;;2.90;2.80;;;24.50;48.60;;;;;;5075132;28;20430;-66
2022/08/01 10:13:36;;;;;;;3.00;2.80;;;24.50;48.60;;;;;;5064566;28;20429;-70
2022/08/01 10:16:03;;;;;;;2.80;2.70;;;24.50;48.60;;;;;;5066081;28;20468;-59
2022/08/01 10:18:31;;;;;;;2.90;2.80;;;24.50;48.60;;;;;;5070966;28;20266;-70
2022/08/01 10:20:58;;;;;;;2.50;2.40;;;24.50;48.60;;;;;;5062092;28;20531;-79
2022/08/01 10:23:27;;;;;;;2.67;2.57;;;24.50;48.60;;;;;;5069033;28;20528;-67
2022/08/01 10:25:55;;;;;;;2.53;2.43;;;24.50;48.60;;;;;;5065614;28;20434;-64
2022/08/01 10:28:22;;;;;;;2.60;2.50;;;24.50;48.60;;;;;;5065977;28;20513;-63
2022/08/01 10:30:48;;;;;;;2.93;2.63;;;24.50;48.60;;;;;;5061373;28;20442;-58
2022/08/01 10:33:15;;;;;;;2.50;2.40;;;24.50;48.60;;;;;;5061666;28;20438;-74
2022/08/01 10:35:41;;;;;;;2.53;2.40;;;24.50;48.60;;;;;;5062108;28;20453;-67
2022/08/01 10:38:07;;;;;;;2.90;2.80;;;24.50;48.60;;;;;;5061979;28;20551;-81
2022/08/01 10:40:33;;;;;;;2.40;2.30;;;24.50;48.60;;;;;;5060564;28;20706;-67
2022/08/01 10:42:59;;;;;;;3.40;3.23;;;24.50;48.60;;;;;;5070363;28;20426;-60
2022/08/01 10:45:26;;;;;;;2.43;2.33;;;24.50;48.60;;;;;;5062670;28;20468;-81
2022/08/01 10:48:09;;;;;;;2.53;2.40;;;24.50;48.70;;;;;;5070095;28;20568;-78
2022/08/01 10:50:43;;;;;;;2.47;2.37;;;24.50;48.60;;;;;;5064707;28;20827;-67
2022/08/01 10:53:23;;;;;;;2.77;2.67;;;24.50;48.60;;;;;;5064274;28;20565;-65
2022/08/01 10:56:00;;;;;;;2.43;2.33;;;24.50;48.60;;;;;;5063410;28;20552;-76
2022/08/01 10:58:36;;;;;;;2.40;2.30;;;24.50;48.60;;;;;;5073319;28;20452;-76
2022/08/01 11:01:23;;;;;;;2.50;2.40;;;24.50;48.60;;;;;;5061215;28;20519;-67
2022/08/01 11:04:00;;;;;;;2.67;2.47;;;24.50;48.60;;;;;;5056722;28;20438;-79
2022/08/01 11:06:34;;;;;;;2.50;2.40;;;24.50;48.60;;;;;;5059867;28;20433;-64
2022/08/01 11:09:04;;;;;;;2.30;2.20;;;24.50;48.60;;;;;;5061824;28;20429;-61
2022/08/01 11:11:29;;;;;;;2.47;2.37;;;24.50;48.60;;;;;;5065301;28;20433;-70
2022/08/01 11:14:11;;;;;;;2.50;2.40;;;24.50;48.60;;;;;;5071137;28;20426;-68
2022/08/01 11:16:38;;;;;;;2.40;2.30;;;24.50;48.60;;;;;;5067058;28;21015;-78
2022/08/01 11:19:05;;;;;;;2.73;2.63;;;24.50;48.60;;;;;;5061163;28;21225;-61
2022/08/01 11:21:52;;;;;;;2.53;2.40;;;24.50;48.60;;;;;;5066042;28;20523;-64
2022/08/01 11:24:46;;;;;;;2.10;2.00;;;24.50;48.60;;;;;;5069866;28;20537;-70
2022/08/01 11:27:22;;;;;;;2.10;1.90;;;24.50;48.60;;;;;;5065312;28;20437;-68
2022/08/01 11:30:09;;;;;;;2.30;2.20;;;24.50;48.60;;;;;;5072817;28;20421;-59
2022/08/01 11:32:57;;;;;;;2.47;2.37;;;24.50;48.60;;;;;;5063402;28;20437;-74
2022/08/01 11:35:26;;;;;;;2.63;2.50;;;24.50;48.60;;;;;;5065354;28;20457;-80
2022/08/01 11:37:55;;;;;;;2.20;2.10;;;24.50;48.60;;;;;;5063603;28;20436;-79
2022/08/01 11:40:23;;;;;;;2.33;2.23;;;24.50;48.60;;;;;;5064142;28;21004;-74
2022/08/01 11:43:10;;;;;;;2.23;2.13;;;24.50;48.60;;;;;;5059911;28;20995;-78
2022/08/01 11:45:48;;;;;;;2.50;2.40;;;24.50;48.60;;;;;;5070958;28;20468;-62
2022/08/01 11:48:21;;;;;;;2.33;2.23;;;24.50;48.60;;;;;;5061747;28;20533;-81
2022/08/01 11:50:47;;;;;;;2.63;2.53;;;24.50;48.60;;;;;;5067390;28;20432;-70
2022/08/01 11:53:18;;;;;;;2.40;2.30;;;24.50;48.60;;;;;;5063452;28;20757;-59
2022/08/01 11:55:47;;;;;;;2.33;2.23;;;24.50;48.60;;;;;;5060026;28;21174;-63
2022/08/01 11:58:12;;;;;;;2.37;2.27;;;24.50;48.60;;;;;;5063875;28;23374;-59
2022/08/01 12:00:39;;;;;;;2.37;2.27;;;24.50;48.60;;;;;;5072037;28;20974;-62
2022/08/01 12:03:06;;;;;;;2.23;2.13;;;24.50;48.60;;;;;;5060779;28;20180;-68
2022/08/01 12:05:34;;;;;;;2.27;2.17;;;24.50;48.60;;;;;;5063543;28;20438;-62
2022/08/01 12:08:00;;;;;;;2.23;2.13;;;24.50;48.60;;;;;;5068714;28;20516;-60
2022/08/01 12:10:35;;;;;;;2.30;2.20;;;24.50;48.60;;;;;;5065328;28;20434;-67
2022/08/01 12:13:03;;;;;;;2.50;2.40;;;24.50;48.60;;;;;;5061610;28;20437;-62
2022/08/01 12:15:33;;;;;;;2.17;2.03;;;24.50;48.60;;;;;;5067322;28;20458;-64
2022/08/01 12:18:01;;;;;;;2.20;2.10;;;24.50;48.60;;;;;;5060140;28;20441;-59
2022/08/01 12:20:30;;;;;;;1.93;1.83;;;24.50;48.60;;;;;;5062671;28;20433;-66
2022/08/01 12:22:57;;;;;;;2.00;1.90;;;24.50;48.60;;;;;;5061813;28;20506;-66
2022/08/01 12:25:23;;;;;;;1.90;1.80;;;24.50;48.60;;;;;;5057923;28;20928;-67
2022/08/01 12:27:50;;;;;;;2.20;2.10;;;24.50;48.60;;;;;;5061049;28;20793;-77
2022/08/01 12:30:24;;;;;;;2.40;2.30;;;24.50;48.70;;;;;;5065497;28;20456;-72
2022/08/01 12:32:50;;;;;;;2.00;1.90;;;24.50;48.60;;;;;;5059581;28;20855;-64
2022/08/01 12:35:20;;;;;;;2.07;1.97;;;24.50;48.60;;;;;;5060939;28;20493;-59
2022/08/01 12:37:47;;;;;;;1.93;1.83;;;24.50;48.60;;;;;;5060532;28;20489;-65
2022/08/01 12:40:15;;;;;;;2.17;2.07;;;24.50;48.60;;;;;;5058487;28;20429;-75
2022/08/01 12:42:43;;;;;;;2.23;2.10;;;24.50;48.60;;;;;;5066912;28;20452;-67
2022/08/01 12:45:12;;;;;;;2.50;2.40;;;24.50;48.60;;;;;;5061224;28;20441;-65
2022/08/01 12:47:40;;;;;;;2.20;2.10;;;24.50;48.60;;;;;;5072010;28;20433;-62
2022/08/01 12:50:10;;;;;;;2.07;1.97;;;24.50;48.60;;;;;;5066866;28;20426;-62
2022/08/01 12:52:37;;;;;;;2.10;2.00;;;24.50;48.60;;;;;;5059497;28;20543;-59
2022/08/01 12:55:17;;;;;;;2.07;1.97;;;24.50;48.60;;;;;;5066078;28;20508;-77
2022/08/01 12:57:49;;;;;;;2.00;1.90;;;24.50;48.60;;;;;;5063894;28;20469;-63
2022/08/01 13:00:24;;;;;;;2.00;1.90;;;24.50;48.60;;;;;;5064248;28;20942;-59